createdAt,value
2022-09-25T00:01:08.098Z,97247.72
2022-09-25T00:03:36.478Z,97247.16
2022-09-25T00:06:05.634Z,97246.47
2022-09-25T00:08:34.027Z,97254.47
2022-09-25T00:11:02.462Z,97259.84
2022-09-25T00:13:32.170Z,97259.66
2022-09-25T00:16:03.298Z,97255.84
2022-09-25T00:18:45.445Z,97257.06
2022-09-25T00:21:14.778Z,97263.53
2022-09-25T00:23:43.785Z,97257.78
2022-09-25T00:26:13.205Z,97261.91
2022-09-25T00:28:43.298Z,97262.34
2022-09-25T00:31:11.849Z,97254.81
2022-09-25T00:33:40.774Z,97262.00
2022-09-25T00:36:10.488Z,97254.09
2022-09-25T00:38:39.255Z,97251.78
2022-09-25T00:41:08.159Z,97246.81
2022-09-25T00:43:55.917Z,97250.00
2022-09-25T00:46:26.642Z,97255.09
2022-09-25T00:48:56.613Z,97247.00
2022-09-25T00:51:29.222Z,97245.94
2022-09-25T00:53:58.589Z,97246.72
2022-09-25T00:56:26.895Z,97249.94
2022-09-25T00:58:55.687Z,97254.38
2022-09-25T01:01:25.773Z,97253.63
2022-09-25T01:03:56.253Z,97251.63
2022-09-25T01:06:25.211Z,97252.25
2022-09-25T01:08:53.479Z,97255.22
2022-09-25T01:11:22.852Z,97250.63
2022-09-25T01:13:51.170Z,97251.63
2022-09-25T01:16:21.754Z,97257.84
2022-09-25T01:18:59.379Z,97255.22
2022-09-25T01:21:32.519Z,97255.81
2022-09-25T01:24:20.680Z,97261.19
2022-09-25T01:27:00.345Z,97258.81
2022-09-25T01:29:31.482Z,97262.03
2022-09-25T01:32:03.449Z,97256.41
2022-09-25T01:34:36.535Z,97255.28
2022-09-25T01:37:07.247Z,97261.53
2022-09-25T01:39:37.921Z,97262.69
2022-09-25T01:42:08.823Z,97255.78
2022-09-25T01:44:38.948Z,97258.63
2022-09-25T01:47:09.298Z,97267.34
2022-09-25T01:49:38.897Z,97260.56
2022-09-25T01:52:09.579Z,97260.00
2022-09-25T01:54:40.259Z,97268.47
2022-09-25T01:57:11.982Z,97258.44
2022-09-25T01:59:44.391Z,97260.72
2022-09-25T02:02:15.005Z,97266.56
2022-09-25T02:04:44.499Z,97267.25
2022-09-25T02:07:14.452Z,97267.28
2022-09-25T02:09:44.292Z,97276.28
2022-09-25T02:12:14.286Z,97271.34
2022-09-25T02:14:46.788Z,97257.84
2022-09-25T02:17:36.671Z,97266.59
2022-09-25T02:20:19.245Z,97273.13
2022-09-25T02:22:47.530Z,97259.19
2022-09-25T02:25:18.575Z,97264.78
2022-09-25T02:27:46.838Z,97269.00
2022-09-25T02:30:17.583Z,97265.75
2022-09-25T02:32:45.858Z,97267.69
2022-09-25T02:35:14.579Z,97261.09
2022-09-25T02:37:42.871Z,97269.72
2022-09-25T02:40:12.259Z,97263.91
2022-09-25T02:42:45.143Z,97263.63
2022-09-25T02:45:21.172Z,97273.06
2022-09-25T02:47:57.426Z,97269.22
2022-09-25T02:50:27.603Z,97266.56
2022-09-25T02:53:02.861Z,97265.13
2022-09-25T02:55:35.709Z,97263.47
2022-09-25T02:58:06.208Z,97271.09
2022-09-25T03:00:36.394Z,97266.16
2022-09-25T03:03:06.395Z,97261.09
2022-09-25T03:05:34.657Z,97260.28
2022-09-25T03:08:16.909Z,97258.00
2022-09-25T03:10:46.798Z,97262.19
2022-09-25T03:13:16.585Z,97262.75
2022-09-25T03:15:47.291Z,97264.31
2022-09-25T03:18:15.608Z,97262.66
2022-09-25T03:20:52.772Z,97267.19
2022-09-25T03:23:21.062Z,97259.28
2022-09-25T03:25:50.535Z,97270.13
2022-09-25T03:28:18.923Z,97269.28
2022-09-25T03:30:57.121Z,97267.91
2022-09-25T03:33:25.602Z,97268.50
2022-09-25T03:36:02.585Z,97261.84
2022-09-25T03:38:30.884Z,97275.66
2022-09-25T03:40:59.209Z,97272.59
2022-09-25T03:43:27.612Z,97267.63
2022-09-25T03:45:57.334Z,97270.06
2022-09-25T03:48:25.747Z,97266.38
2022-09-25T03:50:56.425Z,97267.09
2022-09-25T03:53:24.709Z,97266.09
2022-09-25T03:55:52.984Z,97267.09
2022-09-25T03:58:23.781Z,97260.31
2022-09-25T04:00:52.110Z,97263.13
2022-09-25T04:03:22.705Z,97269.75
2022-09-25T04:05:51.016Z,97272.44
2022-09-25T04:08:19.320Z,97275.72
2022-09-25T04:10:48.149Z,97267.81
2022-09-25T04:13:17.263Z,97267.94
2022-09-25T04:15:47.110Z,97264.56
2022-09-25T04:18:15.382Z,97271.47
2022-09-25T04:20:45.311Z,97274.16
2022-09-25T04:23:16.090Z,97277.00
2022-09-25T04:25:44.403Z,97280.81
2022-09-25T04:28:12.686Z,97275.59
2022-09-25T04:30:41.433Z,97268.97
2022-09-25T04:33:24.306Z,97272.78
2022-09-25T04:35:54.236Z,97267.97
2022-09-25T04:38:22.821Z,97275.19
2022-09-25T04:40:51.290Z,97271.22
2022-09-25T04:43:19.632Z,97273.50
2022-09-25T04:45:48.258Z,97269.97
2022-09-25T04:48:16.585Z,97265.59
2022-09-25T04:50:49.106Z,97270.66
2022-09-25T04:53:18.938Z,97268.69
2022-09-25T04:55:48.274Z,97274.47
2022-09-25T04:58:16.535Z,97272.38
2022-09-25T05:00:45.052Z,97268.28
2022-09-25T05:03:13.499Z,97268.28
2022-09-25T05:05:41.978Z,97269.00
2022-09-25T05:08:11.070Z,97267.00
2022-09-25T05:13:28.306Z,97262.50
2022-09-25T05:15:57.355Z,97265.59
2022-09-25T05:18:25.887Z,97269.97
2022-09-25T05:20:54.706Z,97272.19
2022-09-25T05:23:24.071Z,97266.72
2022-09-25T05:25:55.395Z,97277.44
2022-09-25T05:28:24.951Z,97268.53
2022-09-25T05:30:53.680Z,97266.56
2022-09-25T05:33:22.031Z,97272.78
2022-09-25T05:35:50.288Z,97269.97
2022-09-25T05:38:19.048Z,97270.38
2022-09-25T05:40:47.793Z,97266.72
2022-09-25T05:43:17.908Z,97272.78
2022-09-25T05:46:04.701Z,97271.38
2022-09-25T05:48:33.043Z,97266.31
2022-09-25T05:51:01.364Z,97269.00
2022-09-25T05:53:34.254Z,97263.31
2022-09-25T05:56:09.229Z,97265.31
2022-09-25T05:58:59.604Z,97265.72
2022-09-25T06:01:31.209Z,97265.84
2022-09-25T06:03:59.511Z,97265.28
2022-09-25T06:06:27.954Z,97262.03
2022-09-25T06:08:56.441Z,97273.03
2022-09-25T06:11:25.232Z,97281.66
2022-09-25T06:14:13.489Z,97280.56
2022-09-25T06:16:41.876Z,97279.44
2022-09-25T06:19:10.600Z,97278.88
2022-09-25T06:21:38.879Z,97279.13
2022-09-25T06:24:07.378Z,97277.28
2022-09-25T06:26:35.660Z,97281.69
2022-09-25T06:29:04.272Z,97277.44
2022-09-25T06:31:34.257Z,97286.31
2022-09-25T06:34:03.937Z,97280.81
2022-09-25T06:36:32.298Z,97284.09
2022-09-25T06:39:00.586Z,97293.25
2022-09-25T06:41:29.846Z,97277.88
2022-09-25T06:44:15.361Z,97287.16
2022-09-25T06:47:03.580Z,97287.59
2022-09-25T06:49:48.955Z,97286.19
2022-09-25T06:52:17.347Z,97287.59
2022-09-25T06:54:45.688Z,97297.63
2022-09-25T06:57:13.995Z,97299.31
2022-09-25T06:59:42.292Z,97301.03
2022-09-25T07:02:26.021Z,97303.00
2022-09-25T07:04:54.402Z,97295.50
2022-09-25T07:07:24.384Z,97291.81
2022-09-25T07:09:52.761Z,97299.31
2022-09-25T07:12:22.179Z,97305.09
2022-09-25T07:14:50.960Z,97296.63
2022-09-25T07:17:20.611Z,97298.88
2022-09-25T07:19:52.070Z,97307.63
2022-09-25T07:22:20.431Z,97312.69
2022-09-25T07:24:48.762Z,97300.41
2022-09-25T07:27:17.025Z,97309.53
2022-09-25T07:29:45.366Z,97316.38
2022-09-25T07:37:47.731Z,97320.56
2022-09-25T07:40:16.150Z,97318.56
2022-09-25T07:42:44.509Z,97316.44
2022-09-25T07:45:13.316Z,97315.28
2022-09-25T07:47:41.650Z,97316.25
2022-09-25T07:50:15.404Z,97308.72
2022-09-25T07:52:44.135Z,97304.72
2022-09-25T07:55:12.427Z,97308.44
2022-09-25T07:57:42.927Z,97302.41
2022-09-25T08:00:12.312Z,97309.66
2022-09-25T08:02:41.691Z,97301.50
2022-09-25T08:05:14.683Z,97310.34
2022-09-25T08:07:43.062Z,97310.31
2022-09-25T08:10:11.941Z,97309.25
2022-09-25T08:12:49.666Z,97313.94
2022-09-25T08:15:18.202Z,97318.63
2022-09-25T08:17:46.504Z,97326.16
2022-09-25T08:20:16.367Z,97319.03
2022-09-25T08:22:44.727Z,97318.91
2022-09-25T08:25:13.178Z,97330.22
2022-09-25T08:27:42.574Z,97327.91
2022-09-25T08:30:13.965Z,97328.22
2022-09-25T08:32:42.342Z,97330.41
2022-09-25T08:35:11.165Z,97328.34
2022-09-25T08:37:43.273Z,97326.97
2022-09-25T08:40:18.307Z,97323.25
2022-09-25T08:42:47.205Z,97317.91
2022-09-25T08:45:39.919Z,97323.13
2022-09-25T08:48:22.726Z,97315.44
2022-09-25T08:50:53.524Z,97315.81
2022-09-25T08:53:25.380Z,97308.53
2022-09-25T08:56:07.517Z,97312.19
2022-09-25T08:58:43.332Z,97307.72
2022-09-25T09:01:15.016Z,97313.50
2022-09-25T09:03:46.953Z,97302.50
2022-09-25T09:06:17.106Z,97306.03
2022-09-25T09:08:49.090Z,97310.03
2022-09-25T09:11:19.461Z,97311.88
2022-09-25T09:13:49.755Z,97315.53
2022-09-25T09:16:21.162Z,97310.72
2022-09-25T09:18:49.416Z,97310.22
2022-09-25T09:21:22.803Z,97312.34
2022-09-25T09:23:55.240Z,97310.03
2022-09-25T09:26:26.379Z,97313.97
2022-09-25T09:29:07.223Z,97317.09
2022-09-25T09:31:41.698Z,97308.38
2022-09-25T09:34:52.941Z,97310.75
2022-09-25T09:37:22.498Z,97309.72
2022-09-25T09:40:12.176Z,97312.91
2022-09-25T09:42:44.318Z,97312.97
2022-09-25T09:45:33.646Z,97312.44
2022-09-25T09:48:06.849Z,97315.81
2022-09-25T09:50:43.806Z,97306.75
2022-09-25T09:53:19.271Z,97295.28
2022-09-25T09:55:50.956Z,97298.50
2022-09-25T09:58:21.652Z,97299.50
2022-09-25T10:00:50.244Z,97289.53
2022-09-25T10:03:20.199Z,97280.91
2022-09-25T10:05:49.363Z,97282.47
2022-09-25T10:08:18.778Z,97278.16
2022-09-25T10:10:51.467Z,97277.22
2022-09-25T10:13:21.707Z,97281.91
2022-09-25T10:15:52.984Z,97275.50
2022-09-25T10:18:22.451Z,97276.13
2022-09-25T10:20:52.844Z,97273.03
2022-09-25T10:23:35.216Z,97280.41
2022-09-25T10:26:07.378Z,97281.66
2022-09-25T10:31:40.701Z,97279.50
2022-09-25T10:34:21.622Z,97279.50
2022-09-25T10:36:51.393Z,97282.94
2022-09-25T10:39:45.833Z,97280.47
2022-09-25T10:42:36.363Z,97277.25
2022-09-25T10:45:18.065Z,97272.59
2022-09-25T10:48:05.815Z,97267.59
2022-09-25T10:50:34.471Z,97269.91
2022-09-25T10:53:04.309Z,97250.41
2022-09-25T10:55:34.176Z,97259.13
2022-09-25T10:58:10.622Z,97273.91
2022-09-25T11:00:43.703Z,97275.91
2022-09-25T11:03:21.467Z,97275.56
2022-09-25T11:06:10.507Z,97266.69
2022-09-25T11:08:41.499Z,97256.59
2022-09-25T11:11:10.671Z,97253.75
2022-09-25T11:13:46.479Z,97259.81
2022-09-25T11:16:14.869Z,97250.72
2022-09-25T11:18:45.330Z,97256.28
2022-09-25T11:21:21.906Z,97258.78
2022-09-25T11:24:14.709Z,97249.50
2022-09-25T11:26:44.705Z,97250.72
2022-09-25T11:29:17.146Z,97249.50
2022-09-25T11:31:47.868Z,97245.84
2022-09-25T11:34:21.324Z,97239.09
2022-09-25T11:36:50.733Z,97245.31
2022-09-25T11:39:37.739Z,97252.72
2022-09-25T11:42:08.305Z,97254.06
2022-09-25T11:44:40.306Z,97245.66
2022-09-25T11:47:13.046Z,97245.34
2022-09-25T11:49:41.482Z,97242.13
2022-09-25T11:52:29.602Z,97243.81
2022-09-25T11:55:33.624Z,97244.31
2022-09-25T11:58:09.866Z,97247.34
2022-09-25T12:00:45.648Z,97241.94
2022-09-25T12:03:25.782Z,97234.84
2022-09-25T12:06:06.947Z,97236.25
2022-09-25T12:08:58.093Z,97237.06
2022-09-25T12:11:30.525Z,97231.19
2022-09-25T12:14:03.654Z,97229.28
2022-09-25T12:16:52.683Z,97215.59
2022-09-25T12:19:29.516Z,97224.25
2022-09-25T12:22:01.328Z,97219.34
2022-09-25T12:24:37.033Z,97222.38
2022-09-25T12:27:09.895Z,97223.22
2022-09-25T12:29:46.719Z,97217.00
2022-09-25T12:32:22.049Z,97220.19
2022-09-25T12:34:58.254Z,97220.03
2022-09-25T12:37:32.424Z,97208.56
2022-09-25T12:40:19.125Z,97208.75
2022-09-25T12:42:52.255Z,97212.94
2022-09-25T12:45:23.404Z,97203.81
2022-09-25T12:48:01.403Z,97204.19
2022-09-25T12:50:36.113Z,97203.63
2022-09-25T12:53:07.015Z,97198.59
2022-09-25T12:55:38.886Z,97196.72
2022-09-25T12:58:28.522Z,97191.66
2022-09-25T13:00:59.407Z,97196.69
2022-09-25T13:03:37.384Z,97196.41
2022-09-25T13:06:26.751Z,97187.97
2022-09-25T13:08:58.129Z,97181.84
2022-09-25T13:11:36.206Z,97179.81
2022-09-25T13:14:22.035Z,97179.59
2022-09-25T13:16:50.358Z,97175.75
2022-09-25T13:22:14.363Z,97179.78
2022-09-25T13:24:50.496Z,97188.41
2022-09-25T13:30:20.581Z,97184.94
2022-09-25T13:32:49.514Z,97175.16
2022-09-25T13:35:37.634Z,97170.75
2022-09-25T13:38:11.816Z,97174.66
2022-09-25T13:40:42.899Z,97155.59
2022-09-25T13:43:20.973Z,97165.34
2022-09-25T13:45:50.461Z,97164.31
2022-09-25T13:48:35.756Z,97160.97
2022-09-25T13:51:34.847Z,97155.72
2022-09-25T13:54:05.117Z,97153.47
2022-09-25T13:56:48.616Z,97157.25
2022-09-25T13:59:36.406Z,97151.00
2022-09-25T14:02:34.280Z,97150.75
2022-09-25T14:05:02.631Z,97148.94
2022-09-25T14:07:32.302Z,97140.94
2022-09-25T14:10:02.103Z,97150.97
2022-09-25T14:12:39.286Z,97149.13
2022-09-25T14:15:09.372Z,97150.91
2022-09-25T14:17:38.497Z,97156.84
2022-09-25T14:20:11.306Z,97155.41
2022-09-25T14:22:46.640Z,97149.38
2022-09-25T14:25:28.529Z,97157.28
2022-09-25T14:27:57.053Z,97151.50
2022-09-25T14:30:29.354Z,97150.88
2022-09-25T14:33:06.863Z,97143.28
2022-09-25T14:35:38.825Z,97143.72
2022-09-25T14:38:36.038Z,97140.22
2022-09-25T14:41:18.908Z,97139.56
2022-09-25T14:43:55.435Z,97133.13
2022-09-25T14:46:23.894Z,97132.44
2022-09-25T14:48:54.479Z,97133.56
2022-09-25T14:51:25.821Z,97120.09
2022-09-25T14:56:42.949Z,97114.66
2022-09-25T14:59:28.107Z,97116.66
2022-09-25T15:01:56.542Z,97125.56
2022-09-25T15:04:28.303Z,97124.19
2022-09-25T15:07:01.579Z,97128.59
2022-09-25T15:09:32.570Z,97117.81
2022-09-25T15:12:01.276Z,97119.81
2022-09-25T15:14:29.563Z,97112.63
2022-09-25T15:17:11.617Z,97115.25
2022-09-25T15:19:42.737Z,97117.44
2022-09-25T15:22:11.741Z,97109.13
2022-09-25T15:24:41.739Z,97112.38
2022-09-25T15:27:13.606Z,97111.38
2022-09-25T15:29:44.148Z,97102.56
2022-09-25T15:32:17.792Z,97108.19
2022-09-25T15:34:46.136Z,97100.84
2022-09-25T15:37:23.772Z,97104.22
2022-09-25T15:39:53.581Z,97104.47
2022-09-25T15:42:22.283Z,97097.59
2022-09-25T15:44:50.979Z,97103.22
2022-09-25T15:47:50.831Z,97097.03
2022-09-25T15:50:23.351Z,97099.91
2022-09-25T15:53:10.000Z,97086.78
2022-09-25T15:55:40.613Z,97095.75
2022-09-25T15:58:15.767Z,97090.50
2022-09-25T16:01:13.337Z,97083.44
2022-09-25T16:03:57.498Z,97086.16
2022-09-25T16:06:26.415Z,97085.44
2022-09-25T16:09:09.175Z,97085.13
2022-09-25T16:11:39.016Z,97078.50
2022-09-25T16:14:22.196Z,97088.00
2022-09-25T16:16:53.978Z,97084.09
2022-09-25T16:19:30.304Z,97088.13
2022-09-25T16:22:03.562Z,97082.91
2022-09-25T16:24:32.294Z,97083.47
2022-09-25T16:27:02.681Z,97081.91
2022-09-25T16:29:31.708Z,97082.41
2022-09-25T16:32:02.435Z,97089.00
2022-09-25T16:34:32.129Z,97097.97
2022-09-25T16:37:03.138Z,97091.22
2022-09-25T16:39:33.315Z,97096.28
2022-09-25T16:42:04.637Z,97099.13
2022-09-25T16:44:47.277Z,97095.09
2022-09-25T16:47:18.065Z,97095.94
2022-09-25T16:49:46.401Z,97092.25
2022-09-25T16:52:20.782Z,97090.19
2022-09-25T16:54:53.910Z,97098.25
2022-09-25T16:57:45.945Z,97096.16
2022-09-25T17:00:16.976Z,97091.97
2022-09-25T17:02:45.913Z,97104.19
2022-09-25T17:05:18.113Z,97109.56
2022-09-25T17:07:48.365Z,97110.38
2022-09-25T17:10:17.352Z,97115.88
2022-09-25T17:12:53.318Z,97107.78
2022-09-25T17:15:24.039Z,97112.78
2022-09-25T17:17:55.849Z,97117.47
2022-09-25T17:20:26.426Z,97100.63
2022-09-25T17:22:55.697Z,97103.75
2022-09-25T17:25:31.986Z,97106.91
2022-09-25T17:28:01.651Z,97103.44
2022-09-25T17:30:30.479Z,97102.56
2022-09-25T17:32:59.039Z,97106.44
2022-09-25T17:35:32.589Z,97109.13
2022-09-25T17:38:02.582Z,97114.16
2022-09-25T17:40:31.204Z,97114.69
2022-09-25T17:42:59.522Z,97118.00
2022-09-25T17:45:33.217Z,97121.59
2022-09-25T17:48:18.766Z,97118.38
2022-09-25T17:50:47.067Z,97119.28
2022-09-25T17:53:17.775Z,97118.38
2022-09-25T17:55:51.201Z,97119.44
2022-09-25T17:58:40.702Z,97117.84
2022-09-25T18:01:14.109Z,97108.63
2022-09-25T18:03:42.492Z,97117.75
2022-09-25T18:06:10.790Z,97113.69
2022-09-25T18:08:58.926Z,97110.69
2022-09-25T18:11:27.408Z,97106.25
2022-09-25T18:13:57.605Z,97116.25
2022-09-25T18:16:52.402Z,97112.44
2022-09-25T18:19:55.274Z,97112.13
2022-09-25T18:22:25.743Z,97110.81
2022-09-25T18:24:57.095Z,97110.81
2022-09-25T18:27:25.826Z,97108.44
2022-09-25T18:29:54.085Z,97113.28
2022-09-25T18:32:25.266Z,97110.28
2022-09-25T18:34:53.822Z,97106.88
2022-09-25T18:37:22.253Z,97114.72
2022-09-25T18:39:51.043Z,97110.69
2022-09-25T18:42:19.351Z,97118.66
2022-09-25T18:44:47.854Z,97117.09
2022-09-25T18:47:16.453Z,97120.00
2022-09-25T18:49:46.196Z,97112.19
2022-09-25T18:52:14.735Z,97108.81
2022-09-25T18:54:43.080Z,97111.19
2022-09-25T18:57:12.479Z,97116.69
2022-09-25T18:59:40.806Z,97117.19
2022-09-25T19:02:17.680Z,97109.44
2022-09-25T19:04:48.008Z,97108.84
2022-09-25T19:07:17.046Z,97111.03
2022-09-25T19:09:45.328Z,97108.59
2022-09-25T19:12:17.223Z,97110.28
2022-09-25T19:14:45.570Z,97112.19
2022-09-25T19:17:16.420Z,97101.75
2022-09-25T19:19:44.744Z,97108.88
2022-09-25T19:22:16.113Z,97111.03
2022-09-25T19:24:46.370Z,97109.13
2022-09-25T19:27:15.732Z,97114.47
2022-09-25T19:29:44.178Z,97112.13
2022-09-25T19:32:13.591Z,97108.44
2022-09-25T19:34:42.053Z,97108.59
2022-09-25T19:37:11.168Z,97113.44
2022-09-25T19:39:55.269Z,97107.00
2022-09-25T19:42:23.938Z,97102.66
2022-09-25T19:44:54.283Z,97106.44
2022-09-25T19:47:22.775Z,97103.06
2022-09-25T19:50:08.920Z,97100.69
2022-09-25T19:52:38.386Z,97099.38
2022-09-25T19:55:08.880Z,97104.09
2022-09-25T19:57:37.377Z,97096.34
2022-09-25T20:00:06.433Z,97103.44
2022-09-25T20:02:34.891Z,97095.09
2022-09-25T20:05:03.331Z,97093.25
2022-09-25T20:07:31.677Z,97080.66
2022-09-25T20:10:00.369Z,97081.91
2022-09-25T20:12:30.126Z,97075.78
2022-09-25T20:14:58.489Z,97067.44
2022-09-25T20:17:27.350Z,97076.16
2022-09-25T20:19:55.924Z,97073.09
2022-09-25T20:22:24.263Z,97075.09
2022-09-25T20:24:52.763Z,97081.16
2022-09-25T20:27:26.064Z,97074.34
2022-09-25T20:29:55.906Z,97071.25
2022-09-25T20:32:24.190Z,97074.94
2022-09-25T20:34:53.153Z,97067.03
2022-09-25T20:37:21.455Z,97073.75
2022-09-25T20:40:19.440Z,97073.59
2022-09-25T20:42:48.423Z,97081.09
2022-09-25T20:45:19.041Z,97082.19
2022-09-25T20:47:48.165Z,97077.25
2022-09-25T20:50:17.335Z,97073.16
2022-09-25T20:52:46.363Z,97075.94
2022-09-25T20:55:19.060Z,97064.50
2022-09-25T20:57:47.385Z,97062.84
2022-09-25T21:00:19.403Z,97060.59
2022-09-25T21:02:50.083Z,97060.56
2022-09-25T21:05:18.460Z,97055.63
2022-09-25T21:07:46.819Z,97062.09
2022-09-25T21:10:17.020Z,97055.78
2022-09-25T21:12:45.751Z,97051.69
2022-09-25T21:15:14.039Z,97055.22
2022-09-25T21:17:43.898Z,97049.25
2022-09-25T21:20:12.774Z,97038.81
2022-09-25T21:22:41.304Z,97046.06
2022-09-25T21:25:10.323Z,97047.47
2022-09-25T21:27:38.937Z,97048.63
2022-09-25T21:30:07.974Z,97054.34
2022-09-25T21:32:36.297Z,97048.28
2022-09-25T21:35:06.164Z,97048.69
2022-09-25T21:37:35.911Z,97048.88
2022-09-25T21:40:05.641Z,97048.69
2022-09-25T21:42:34.119Z,97042.84
2022-09-25T21:47:50.888Z,97029.84
2022-09-25T21:50:20.560Z,97043.25
2022-09-25T21:52:48.839Z,97039.75
2022-09-25T21:55:17.378Z,97039.44
2022-09-25T21:57:46.083Z,97036.47
2022-09-25T22:00:16.925Z,97037.50
2022-09-25T22:02:45.359Z,97029.19
2022-09-25T22:05:15.890Z,97030.47
2022-09-25T22:07:46.660Z,97022.44
2022-09-25T22:10:14.946Z,97025.69
2022-09-25T22:12:43.313Z,97029.34
2022-09-25T22:15:12.215Z,97025.81
2022-09-25T22:17:40.511Z,97024.53
2022-09-25T22:20:11.380Z,97027.53
2022-09-25T22:22:40.121Z,97032.16
2022-09-25T22:25:10.312Z,97021.44
2022-09-25T22:27:41.498Z,97024.41
2022-09-25T22:30:15.498Z,97023.66
2022-09-25T22:32:46.364Z,97021.56
2022-09-25T23:05:43.007Z,96993.03
2022-09-25T23:35:41.503Z,96954.06
2022-09-25T23:38:51.779Z,96957.81
2022-09-25T23:41:21.064Z,96952.16
2022-09-25T23:44:33.057Z,96942.44
2022-09-25T23:51:35.918Z,96939.75
2022-09-25T23:54:05.699Z,96935.56
2022-09-25T23:56:34.807Z,96939.81
2022-09-25T23:59:27.121Z,96938.00
